Time;durP1;ratioP1;P1;durP2;ratioP2;P2;SDS_P1;SDS_P2;PMS_P1;PMS_P2;Temp;Humidity;BMP_temperature;BMP_pressure;BME280_temperature;BME280_humidity;BME280_pressure;Samples;Min_cycle;Max_cycle;Signal;HPM_P1;HPM_P2
2022/08/30 00:02:59;;;;;;;3.00;2.15;;;18.80;66.50;;;;;;9179948;19;20018;-69
2022/08/30 00:06:05;;;;;;;4.63;2.17;;;18.80;66.40;;;;;;9181340;19;20011;-69
2022/08/30 00:09:10;;;;;;;2.70;1.92;;;18.70;66.50;;;;;;9180556;19;20831;-71
2022/08/30 00:12:15;;;;;;;4.63;3.15;;;18.70;66.50;;;;;;9179933;19;20029;-69
2022/08/30 00:15:24;;;;;;;4.80;2.10;;;18.70;66.70;;;;;;9180096;19;20010;-67
2022/08/30 00:18:29;;;;;;;4.45;2.30;;;18.70;66.80;;;;;;9180836;19;20034;-67
2022/08/30 00:21:34;;;;;;;4.20;2.25;;;18.70;66.80;;;;;;9178788;19;20023;-69
2022/08/30 00:24:39;;;;;;;5.68;2.42;;;18.60;66.80;;;;;;9177419;19;20014;-68
2022/08/30 00:27:45;;;;;;;3.90;2.40;;;18.60;66.90;;;;;;9174031;19;20033;-68
2022/08/30 00:30:53;;;;;;;3.42;2.60;;;18.60;67.00;;;;;;9178198;19;20034;-68
2022/08/30 00:33:58;;;;;;;3.83;2.35;;;18.50;67.10;;;;;;9179187;19;20074;-68
2022/08/30 00:37:03;;;;;;;8.80;2.53;;;18.50;67.10;;;;;;9179431;19;20026;-67
2022/08/30 00:40:10;;;;;;;7.30;2.58;;;18.50;67.20;;;;;;9178506;19;20018;-68
2022/08/30 00:43:21;;;;;;;7.70;2.75;;;18.50;67.30;;;;;;9178605;19;20014;-70
2022/08/30 00:46:31;;;;;;;6.80;2.85;;;18.40;67.30;;;;;;9178100;19;20081;-65
2022/08/30 00:49:38;;;;;;;9.50;2.88;;;18.40;67.40;;;;;;9179058;19;20015;-66
2022/08/30 00:52:46;;;;;;;4.55;2.42;;;18.40;67.50;;;;;;9180192;19;20017;-67
2022/08/30 00:55:51;;;;;;;8.82;2.83;;;18.30;67.50;;;;;;9178951;19;20029;-68
2022/08/30 00:58:59;;;;;;;5.55;3.00;;;18.30;67.50;;;;;;9186091;19;20487;-68
2022/08/30 01:02:08;;;;;;;5.53;2.72;;;18.30;67.70;;;;;;9187046;19;20018;-69
2022/08/30 01:05:14;;;;;;;9.95;3.22;;;18.30;67.80;;;;;;9188197;19;20026;-68
2022/08/30 01:08:21;;;;;;;5.60;2.70;;;18.20;67.70;;;;;;9186654;19;20029;-68
2022/08/30 01:11:27;;;;;;;3.50;2.72;;;18.20;67.80;;;;;;9187285;19;20021;-68
2022/08/30 01:14:34;;;;;;;5.95;3.10;;;18.20;67.80;;;;;;9186960;19;20025;-71
2022/08/30 01:17:46;;;;;;;5.10;2.83;;;18.10;67.90;;;;;;9186425;19;20119;-69
2022/08/30 01:21:02;;;;;;;6.80;2.78;;;18.10;68.00;;;;;;9186655;19;20025;-68
2022/08/30 01:24:10;;;;;;;8.43;3.10;;;18.10;68.10;;;;;;9185379;19;20321;-69
2022/08/30 01:27:16;;;;;;;3.45;2.80;;;18.00;68.10;;;;;;9180681;19;20019;-69
2022/08/30 01:30:22;;;;;;;4.53;3.03;;;18.00;68.00;;;;;;9186953;19;20026;-68
2022/08/30 01:33:27;;;;;;;5.75;2.83;;;18.00;68.10;;;;;;9187244;19;20797;-67
2022/08/30 01:36:33;;;;;;;4.95;2.92;;;18.00;68.20;;;;;;9185700;19;20011;-66
2022/08/30 01:39:41;;;;;;;6.38;2.90;;;18.00;68.90;;;;;;9185178;19;20638;-67
2022/08/30 01:42:46;;;;;;;12.65;3.72;;;17.90;68.30;;;;;;9185607;19;20014;-67
2022/08/30 01:45:50;;;;;;;3.63;2.85;;;17.90;68.30;;;;;;9185290;19;20043;-70
2022/08/30 01:48:58;;;;;;;5.35;2.78;;;17.90;68.40;;;;;;9186104;19;20015;-69
2022/08/30 01:52:04;;;;;;;6.47;2.65;;;17.90;68.50;;;;;;9185968;19;20014;-70
2022/08/30 01:55:12;;;;;;;5.25;2.90;;;17.80;68.40;;;;;;9185208;19;20038;-70
2022/08/30 01:58:17;;;;;;;6.35;3.33;;;17.80;68.50;;;;;;9186167;19;20014;-68
2022/08/30 02:01:25;;;;;;;3.95;2.92;;;17.80;68.50;;;;;;9185005;19;20062;-69
2022/08/30 02:04:30;;;;;;;7.32;3.75;;;17.80;68.70;;;;;;9183402;19;20018;-69
2022/08/30 02:07:35;;;;;;;6.35;3.00;;;17.70;68.60;;;;;;9183972;19;20014;-68
2022/08/30 02:10:43;;;;;;;6.32;3.08;;;17.70;68.60;;;;;;9184497;19;20007;-70
2022/08/30 02:13:48;;;;;;;7.88;3.47;;;17.70;68.80;;;;;;9182204;19;20463;-70
2022/08/30 02:16:53;;;;;;;9.18;3.63;;;17.70;68.80;;;;;;9185148;19;20042;-69
2022/08/30 02:19:58;;;;;;;3.60;2.85;;;17.60;68.80;;;;;;9184924;19;20026;-69
2022/08/30 02:23:03;;;;;;;7.40;3.42;;;17.70;68.80;;;;;;9182853;19;20023;-68
2022/08/30 02:26:11;;;;;;;4.35;3.10;;;17.60;68.80;;;;;;9184461;19;20018;-65
2022/08/30 02:29:16;;;;;;;5.45;3.20;;;17.60;68.90;;;;;;9180831;19;20053;-69
2022/08/30 02:32:21;;;;;;;6.80;3.10;;;17.60;68.90;;;;;;9184700;19;20022;-70
2022/08/30 02:35:27;;;;;;;7.07;3.08;;;17.60;69.00;;;;;;9183198;19;20018;-69
2022/08/30 02:38:32;;;;;;;5.60;2.95;;;17.60;69.00;;;;;;9183658;19;20606;-68
2022/08/30 02:41:39;;;;;;;8.38;3.30;;;17.50;69.00;;;;;;9181494;19;20021;-70
2022/08/30 02:44:44;;;;;;;5.65;3.40;;;17.50;69.10;;;;;;9181563;19;20802;-71
2022/08/30 02:47:49;;;;;;;4.55;2.95;;;17.50;69.10;;;;;;9184127;19;20019;-69
2022/08/30 02:50:55;;;;;;;4.20;3.47;;;17.50;69.10;;;;;;9183761;19;20025;-70
2022/08/30 02:54:00;;;;;;;6.60;3.25;;;17.50;69.20;;;;;;9183154;19;20515;-70
2022/08/30 02:57:07;;;;;;;8.52;4.20;;;17.50;69.20;;;;;;9181522;19;20344;-68
2022/08/30 03:00:24;;;;;;;5.00;3.33;;;17.40;69.20;;;;;;9182939;19;20014;-69
2022/08/30 03:03:29;;;;;;;6.07;3.08;;;17.40;69.30;;;;;;9181889;19;20014;-70
2022/08/30 03:06:35;;;;;;;5.10;3.10;;;17.40;69.30;;;;;;9182479;19;20018;-67
2022/08/30 03:09:40;;;;;;;3.40;3.10;;;17.30;69.30;;;;;;9182720;19;20022;-69
2022/08/30 03:12:48;;;;;;;6.22;3.00;;;17.30;69.30;;;;;;9181875;19;20375;-68
2022/08/30 03:15:54;;;;;;;3.42;2.67;;;17.30;69.50;;;;;;9181058;19;20010;-70
2022/08/30 03:18:59;;;;;;;6.15;3.55;;;17.30;69.40;;;;;;9180865;19;20828;-69
2022/08/30 03:22:04;;;;;;;5.65;3.15;;;17.20;69.40;;;;;;9180663;19;20017;-69
2022/08/30 03:25:10;;;;;;;6.45;3.15;;;17.20;69.50;;;;;;9180341;19;20010;-68
2022/08/30 03:28:18;;;;;;;9.60;3.67;;;17.20;69.60;;;;;;9178209;19;20105;-69
2022/08/30 03:31:23;;;;;;;8.27;3.50;;;17.10;69.60;;;;;;9181240;19;20026;-69
2022/08/30 03:34:29;;;;;;;5.60;3.35;;;17.10;69.60;;;;;;9182191;19;20010;-68
2022/08/30 03:37:34;;;;;;;8.60;3.35;;;17.10;69.80;;;;;;9179565;19;20415;-67
2022/08/30 03:40:39;;;;;;;8.85;3.35;;;17.10;69.80;;;;;;9179734;19;20006;-70
2022/08/30 03:43:47;;;;;;;4.78;3.47;;;17.00;69.80;;;;;;9181624;19;20018;-68
2022/08/30 03:46:54;;;;;;;7.93;3.80;;;17.00;69.90;;;;;;9181594;19;20029;-68
2022/08/30 03:49:59;;;;;;;8.98;3.60;;;17.00;70.00;;;;;;9180811;19;20014;-68
2022/08/30 03:53:05;;;;;;;5.15;3.72;;;17.00;70.00;;;;;;9180599;19;20014;-69
2022/08/30 03:56:10;;;;;;;6.65;3.53;;;17.00;70.10;;;;;;9180856;19;20015;-67
2022/08/30 03:59:17;;;;;;;5.75;3.20;;;17.00;70.10;;;;;;9180980;19;20015;-69
2022/08/30 04:02:23;;;;;;;5.25;3.47;;;17.00;70.20;;;;;;9179958;19;20015;-69
2022/08/30 04:05:28;;;;;;;5.85;3.90;;;16.90;70.10;;;;;;9178722;19;20018;-69
2022/08/30 04:08:33;;;;;;;6.38;3.38;;;16.90;70.20;;;;;;9180224;19;20011;-68
2022/08/30 04:11:39;;;;;;;7.18;3.40;;;16.90;70.20;;;;;;9181428;19;20018;-68
2022/08/30 04:14:46;;;;;;;9.05;3.25;;;16.90;70.30;;;;;;9180663;19;20041;-68
2022/08/30 04:17:52;;;;;;;8.90;3.28;;;16.90;70.40;;;;;;9178115;19;20464;-70
2022/08/30 04:20:57;;;;;;;4.75;3.50;;;16.90;70.30;;;;;;9180185;19;20019;-69
2022/08/30 04:24:02;;;;;;;9.00;3.28;;;16.90;70.40;;;;;;9179367;19;20010;-68
2022/08/30 04:27:07;;;;;;;5.78;2.90;;;16.90;70.40;;;;;;9175001;19;20011;-68
2022/08/30 04:30:17;;;;;;;6.72;3.10;;;16.90;70.50;;;;;;9179761;19;20011;-68
2022/08/30 04:33:23;;;;;;;4.95;3.30;;;16.90;70.60;;;;;;9187838;19;20025;-68
2022/08/30 04:36:28;;;;;;;5.78;3.03;;;16.90;70.60;;;;;;9188935;19;20368;-69
2022/08/30 04:39:33;;;;;;;5.80;3.28;;;16.80;70.50;;;;;;9185642;19;20364;-66
2022/08/30 04:42:39;;;;;;;5.60;3.00;;;16.80;70.60;;;;;;9187210;19;20033;-68
2022/08/30 04:45:47;;;;;;;6.03;3.40;;;16.80;70.60;;;;;;9186303;19;20895;-69
2022/08/30 04:48:52;;;;;;;6.07;3.00;;;16.80;70.70;;;;;;9188538;19;20018;-69
2022/08/30 04:51:57;;;;;;;10.10;3.20;;;16.80;70.70;;;;;;9188202;19;20038;-70
2022/08/30 04:55:02;;;;;;;4.97;2.92;;;16.80;70.80;;;;;;9187516;19;20014;-67
2022/08/30 04:58:07;;;;;;;4.63;2.80;;;16.80;70.70;;;;;;9188092;19;20014;-70
2022/08/30 05:01:17;;;;;;;7.80;3.20;;;16.80;70.70;;;;;;9187671;19;20039;-69
2022/08/30 05:04:23;;;;;;;8.70;2.80;;;16.80;70.80;;;;;;9186882;19;20056;-69
2022/08/30 05:07:28;;;;;;;7.90;3.17;;;16.70;70.80;;;;;;9187633;19;20015;-68
2022/08/30 05:10:34;;;;;;;11.02;2.70;;;16.80;70.80;;;;;;9188243;19;20014;-68
2022/08/30 05:13:39;;;;;;;6.97;3.08;;;16.70;70.80;;;;;;9184480;19;20018;-68
2022/08/30 05:16:48;;;;;;;4.72;2.78;;;16.70;70.90;;;;;;9188004;19;20018;-67
2022/08/30 05:19:53;;;;;;;6.90;3.03;;;16.70;70.90;;;;;;9187744;19;20057;-69
2022/08/30 05:22:58;;;;;;;4.93;3.15;;;16.70;70.90;;;;;;9187358;19;20051;-68
2022/08/30 05:26:07;;;;;;;7.47;3.65;;;16.70;71.00;;;;;;9185571;19;20678;-67
2022/08/30 05:29:12;;;;;;;6.85;3.10;;;16.60;71.00;;;;;;9183605;19;20467;-70
2022/08/30 05:32:19;;;;;;;8.00;3.55;;;16.70;71.10;;;;;;9186872;19;20015;-70
2022/08/30 05:35:24;;;;;;;8.57;3.25;;;16.70;71.20;;;;;;9186023;19;20026;-69
2022/08/30 05:38:29;;;;;;;9.82;3.65;;;16.60;71.10;;;;;;9185930;19;20011;-69
2022/08/30 05:41:35;;;;;;;8.50;3.17;;;16.70;71.20;;;;;;9183276;19;20479;-68
2022/08/30 05:44:40;;;;;;;11.45;3.58;;;16.60;71.20;;;;;;9183782;19;20041;-69
2022/08/30 05:47:50;;;;;;;6.70;3.15;;;16.70;71.30;;;;;;9186275;19;20468;-69
2022/08/30 05:51:03;;;;;;;3.95;2.83;;;16.70;71.40;;;;;;9183809;19;20449;-68
2022/08/30 05:54:09;;;;;;;4.47;2.67;;;16.60;71.40;;;;;;9185202;19;20371;-69
2022/08/30 05:57:14;;;;;;;7.05;2.85;;;16.60;71.30;;;;;;9185285;19;20441;-69
2022/08/30 06:00:20;;;;;;;6.85;3.22;;;16.60;71.40;;;;;;9185606;19;20485;-69
2022/08/30 06:03:31;;;;;;;7.25;3.20;;;16.60;71.40;;;;;;9185792;19;20487;-67
2022/08/30 06:06:38;;;;;;;5.90;3.17;;;16.60;71.60;;;;;;9180667;19;20459;-69
2022/08/30 06:09:43;;;;;;;3.65;2.35;;;16.70;71.70;;;;;;9181554;19;20014;-68
2022/08/30 06:12:48;;;;;;;4.90;2.60;;;16.70;71.70;;;;;;9180445;19;20360;-67
2022/08/30 06:15:53;;;;;;;7.50;2.85;;;16.70;71.70;;;;;;9177098;19;20015;-67
2022/08/30 06:19:01;;;;;;;12.88;2.70;;;16.80;71.80;;;;;;9174063;19;20578;-67
2022/08/30 06:22:06;;;;;;;4.07;2.67;;;16.80;71.80;;;;;;9173140;19;20022;-67
2022/08/30 06:25:15;;;;;;;4.50;2.38;;;16.90;71.80;;;;;;9174096;19;20062;-68
2022/08/30 06:28:20;;;;;;;9.35;2.83;;;17.00;71.90;;;;;;9173397;19;20014;-69
2022/08/30 06:31:45;;;;;;;6.55;2.63;;;17.00;71.80;;;;;;9177119;19;20070;-69
2022/08/30 06:34:52;;;;;;;6.65;2.58;;;17.10;71.70;;;;;;9177706;19;20490;-72
2022/08/30 06:37:57;;;;;;;5.95;2.65;;;17.20;71.80;;;;;;9179326;19;20029;-71
2022/08/30 06:41:07;;;;;;;4.90;2.50;;;17.30;71.70;;;;;;9175305;19;20007;-69
2022/08/30 06:44:12;;;;;;;4.53;2.63;;;17.40;71.70;;;;;;9178182;19;20019;-70
2022/08/30 06:47:17;;;;;;;3.90;2.05;;;17.50;71.60;;;;;;9175558;19;20404;-66
2022/08/30 06:50:25;;;;;;;4.63;2.15;;;17.60;71.50;;;;;;9176917;19;20022;-66
2022/08/30 06:53:31;;;;;;;4.28;2.30;;;17.70;71.50;;;;;;9179059;19;20021;-67
2022/08/30 06:56:36;;;;;;;3.20;2.10;;;17.80;71.50;;;;;;9180240;19;20506;-64
2022/08/30 06:59:41;;;;;;;19.52;2.35;;;17.90;71.40;;;;;;9180891;19;20018;-67
2022/08/30 07:02:46;;;;;;;4.10;2.20;;;18.10;71.30;;;;;;9180901;19;20526;-65
2022/08/30 07:05:53;;;;;;;4.03;1.83;;;18.10;71.10;;;;;;9180391;19;20019;-66
2022/08/30 07:08:59;;;;;;;3.67;2.08;;;18.20;71.60;;;;;;9182352;19;20018;-67
2022/08/30 07:12:06;;;;;;;4.30;2.13;;;18.30;70.90;;;;;;9182448;19;20029;-66
2022/08/30 07:15:12;;;;;;;8.45;1.98;;;18.40;70.80;;;;;;9182242;19;20025;-67
2022/08/30 07:21:42;;;;;;;6.25;1.80;;;18.60;70.50;;;;;;9182162;19;20015;-68
2022/08/30 07:24:47;;;;;;;3.42;1.60;;;18.70;70.40;;;;;;9182216;19;20015;-67
2022/08/30 07:27:53;;;;;;;11.60;1.90;;;18.70;70.30;;;;;;9172328;19;20026;-66
2022/08/30 07:30:58;;;;;;;4.68;1.80;;;18.70;70.20;;;;;;9173244;19;20038;-66
2022/08/30 07:34:03;;;;;;;5.22;1.85;;;18.80;70.10;;;;;;9171654;19;20560;-65
2022/08/30 07:37:11;;;;;;;3.78;1.52;;;18.90;70.00;;;;;;9175696;19;20547;-67
2022/08/30 07:40:22;;;;;;;11.52;1.60;;;18.90;69.80;;;;;;9176267;19;20013;-67
2022/08/30 07:43:27;;;;;;;4.43;1.65;;;18.90;69.70;;;;;;9172828;19;20026;-70
2022/08/30 07:46:32;;;;;;;2.80;1.90;;;18.90;69.60;;;;;;9175993;19;20018;-72
2022/08/30 07:49:39;;;;;;;9.23;1.92;;;19.00;69.50;;;;;;9177616;19;20019;-71
2022/08/30 07:52:47;;;;;;;6.07;1.67;;;19.10;69.50;;;;;;9173175;19;20500;-71
2022/08/30 07:55:52;;;;;;;2.83;1.35;;;19.10;69.30;;;;;;9175871;19;20010;-71
2022/08/30 07:58:57;;;;;;;5.35;1.92;;;19.20;69.20;;;;;;9177550;19;20019;-71
2022/08/30 08:02:02;;;;;;;2.33;1.20;;;19.30;68.90;;;;;;9172374;19;20368;-68
2022/08/30 08:05:09;;;;;;;2.88;1.10;;;19.40;68.80;;;;;;9173836;19;20043;-68
2022/08/30 08:08:24;;;;;;;6.07;2.03;;;19.40;68.70;;;;;;9171946;19;20467;-68
2022/08/30 08:11:30;;;;;;;7.13;1.02;;;19.50;68.60;;;;;;9174835;19;20014;-66
2022/08/30 08:14:38;;;;;;;6.63;1.48;;;19.60;68.50;;;;;;9172868;19;20096;-70
2022/08/30 08:17:43;;;;;;;3.25;1.45;;;19.70;68.30;;;;;;9176490;19;20482;-68
2022/08/30 08:20:48;;;;;;;2.70;1.35;;;19.90;68.30;;;;;;9176854;19;20086;-67
2022/08/30 08:23:56;;;;;;;12.65;1.60;;;20.00;68.00;;;;;;9175197;19;20015;-69
2022/08/30 08:27:01;;;;;;;5.82;1.30;;;20.20;67.80;;;;;;9175652;19;20115;-70
2022/08/30 08:30:07;;;;;;;5.53;1.15;;;20.30;67.60;;;;;;9175194;19;20014;-66
2022/08/30 08:33:13;;;;;;;2.55;1.20;;;20.50;67.30;;;;;;9178802;19;20023;-69
2022/08/30 08:36:18;;;;;;;3.47;1.13;;;20.70;67.20;;;;;;9175131;19;20033;-69
2022/08/30 08:39:26;;;;;;;7.25;1.38;;;20.90;66.90;;;;;;9176143;19;20018;-69
2022/08/30 08:42:40;;;;;;;3.25;1.00;;;21.10;66.50;;;;;;9172529;19;20015;-68
2022/08/30 08:45:55;;;;;;;2.35;0.77;;;21.20;66.10;;;;;;9177440;19;20021;-69
2022/08/30 08:49:06;;;;;;;4.13;1.23;;;21.50;65.80;;;;;;9173400;19;20108;-68
2022/08/30 08:55:45;;;;;;;3.72;0.93;;;21.90;65.10;;;;;;9171870;19;20404;-69
2022/08/30 08:58:53;;;;;;;2.40;1.10;;;22.10;64.70;;;;;;9170593;19;20022;-69
2022/08/30 09:02:01;;;;;;;2.33;1.13;;;22.20;64.40;;;;;;9172706;19;20017;-69
2022/08/30 09:05:08;;;;;;;2.90;1.20;;;22.40;64.00;;;;;;9178986;19;20014;-68
2022/08/30 09:08:16;;;;;;;3.78;1.13;;;22.50;63.80;;;;;;9171034;19;20090;-68
2022/08/30 09:11:29;;;;;;;3.60;1.05;;;22.70;63.50;;;;;;9176000;19;20048;-67
2022/08/30 09:14:37;;;;;;;2.10;0.80;;;22.80;63.10;;;;;;9171771;19;20034;-69
2022/08/30 09:17:55;;;;;;;1.92;0.98;;;23.00;62.80;;;;;;9172242;19;20018;-71
2022/08/30 09:21:09;;;;;;;2.35;0.80;;;23.20;62.20;;;;;;9185067;19;20029;-69
2022/08/30 09:24:17;;;;;;;1.90;0.70;;;23.40;62.10;;;;;;9186845;19;20504;-68
2022/08/30 09:27:34;;;;;;;3.78;0.88;;;23.60;61.90;;;;;;9181745;19;20025;-67
2022/08/30 09:30:40;;;;;;;1.55;0.95;;;23.70;61.40;;;;;;9185299;19;20043;-67
2022/08/30 09:33:56;;;;;;;3.22;1.10;;;23.90;61.10;;;;;;9186479;19;20117;-69
2022/08/30 09:37:01;;;;;;;2.75;1.00;;;24.00;60.30;;;;;;9186518;19;20026;-69
2022/08/30 09:40:16;;;;;;;4.72;1.02;;;24.20;60.40;;;;;;9183295;19;20015;-67
2022/08/30 09:43:26;;;;;;;7.70;1.00;;;24.30;59.80;;;;;;9186219;19;20026;-67
2022/08/30 09:46:32;;;;;;;3.97;1.23;;;24.30;60.20;;;;;;9185957;19;20006;-69
2022/08/30 09:49:38;;;;;;;7.85;1.45;;;24.40;59.40;;;;;;9184491;19;20018;-68
2022/08/30 09:52:58;;;;;;;1.55;1.05;;;24.50;59.10;;;;;;9184774;19;20808;-70
2022/08/30 09:56:08;;;;;;;1.13;0.88;;;24.50;58.50;;;;;;9185370;19;20021;-68
2022/08/30 09:59:28;;;;;;;0.93;0.63;;;24.60;58.50;;;;;;9183213;19;20025;-69
2022/08/30 10:02:56;;;;;;;5.93;1.10;;;24.60;58.10;;;;;;9184263;19;20014;-68
2022/08/30 10:06:09;;;;;;;8.77;1.10;;;24.60;57.70;;;;;;9183415;19;20018;-68
2022/08/30 10:09:26;;;;;;;3.47;1.20;;;24.70;57.80;;;;;;9183954;19;20014;-68
2022/08/30 10:12:42;;;;;;;2.13;0.90;;;24.80;57.60;;;;;;9182692;19;20030;-68
2022/08/30 10:15:53;;;;;;;2.33;1.20;;;25.00;57.60;;;;;;9185550;19;20014;-68
2022/08/30 10:19:12;;;;;;;1.60;0.63;;;25.00;57.30;;;;;;9184935;19;20018;-68
2022/08/30 10:22:23;;;;;;;4.38;1.25;;;25.20;57.00;;;;;;9185076;19;20030;-67
2022/08/30 10:25:34;;;;;;;3.22;1.05;;;25.30;56.80;;;;;;9182710;19;20014;-66
2022/08/30 10:28:44;;;;;;;2.10;0.95;;;25.40;56.50;;;;;;9169894;19;20029;-66
2022/08/30 10:31:58;;;;;;;1.30;0.80;;;25.50;56.30;;;;;;9173318;19;20026;-65
2022/08/30 10:35:06;;;;;;;3.60;1.33;;;25.60;55.80;;;;;;9172613;19;20027;-65
2022/08/30 10:38:19;;;;;;;3.95;1.30;;;25.70;55.70;;;;;;9175292;19;20023;-67
2022/08/30 10:41:29;;;;;;;2.42;0.90;;;25.70;55.40;;;;;;9170739;19;20521;-66
2022/08/30 10:44:40;;;;;;;2.38;1.00;;;25.80;55.20;;;;;;9173522;19;20061;-67
2022/08/30 10:47:56;;;;;;;1.80;0.90;;;25.90;55.00;;;;;;9178171;19;20045;-67
2022/08/30 10:51:10;;;;;;;5.00;1.10;;;26.00;54.60;;;;;;9172609;19;20022;-67
2022/08/30 10:54:20;;;;;;;2.75;1.00;;;26.10;54.50;;;;;;9177772;19;20018;-66
2022/08/30 10:57:25;;;;;;;6.75;1.13;;;26.10;54.30;;;;;;9174984;19;20022;-67
2022/08/30 11:00:37;;;;;;;1.33;0.90;;;26.20;54.30;;;;;;9174270;19;20018;-66
2022/08/30 11:04:21;;;;;;;4.82;1.10;;;26.30;53.90;;;;;;9175287;19;20021;-68
2022/08/30 11:07:38;;;;;;;6.55;1.25;;;26.40;53.10;;;;;;9174508;19;20095;-67
2022/08/30 11:10:53;;;;;;;2.35;1.10;;;26.40;53.40;;;;;;9172597;19;20032;-67
2022/08/30 11:13:59;;;;;;;8.95;1.20;;;26.50;53.20;;;;;;9174196;19;20048;-67
2022/08/30 11:17:26;;;;;;;1.50;0.85;;;26.50;53.20;;;;;;9175555;19;20097;-68
2022/08/30 11:20:40;;;;;;;1.45;0.95;;;26.50;52.50;;;;;;9173898;19;20056;-67
2022/08/30 11:24:01;;;;;;;7.05;1.05;;;26.60;52.80;;;;;;9172990;19;20019;-67
2022/08/30 11:27:06;;;;;;;5.65;1.10;;;26.60;52.40;;;;;;9170574;19;20030;-67
2022/08/30 11:30:48;;;;;;;4.53;0.82;;;26.80;52.80;;;;;;9171989;19;20018;-66
2022/08/30 11:33:56;;;;;;;2.10;1.02;;;26.80;51.90;;;;;;9170602;19;20011;-66
2022/08/30 11:37:07;;;;;;;2.63;1.13;;;26.90;52.30;;;;;;9168456;19;20019;-68
2022/08/30 11:40:44;;;;;;;5.90;0.82;;;27.00;51.90;;;;;;9169588;19;20033;-67
2022/08/30 11:43:57;;;;;;;1.30;0.82;;;27.10;51.40;;;;;;9170367;19;20018;-69
2022/08/30 11:47:03;;;;;;;3.80;1.00;;;27.10;51.50;;;;;;9169752;19;20014;-66
2022/08/30 11:50:14;;;;;;;3.10;1.15;;;27.20;51.60;;;;;;9167396;19;20018;-68
2022/08/30 11:53:29;;;;;;;1.65;0.90;;;27.20;51.40;;;;;;9172536;19;20022;-68
2022/08/30 11:56:44;;;;;;;2.55;0.93;;;27.30;51.20;;;;;;9172156;19;20484;-65
2022/08/30 12:00:01;;;;;;;1.98;0.63;;;27.40;51.10;;;;;;9172633;19;20014;-69
2022/08/30 12:03:32;;;;;;;4.03;1.13;;;27.50;50.80;;;;;;9174527;19;20431;-68
2022/08/30 12:06:55;;;;;;;4.50;1.13;;;27.50;50.40;;;;;;9173647;19;20026;-68
2022/08/30 12:10:06;;;;;;;2.72;0.90;;;27.60;50.50;;;;;;9167606;19;20018;-68
2022/08/30 12:13:48;;;;;;;1.85;0.65;;;27.60;50.50;;;;;;9170253;19;20025;-68
2022/08/30 12:20:23;;;;;;;2.50;1.30;;;27.70;50.40;;;;;;9173664;19;20025;-68
2022/08/30 12:23:41;;;;;;;2.47;1.38;;;27.80;49.80;;;;;;9166375;19;20578;-68
2022/08/30 12:26:52;;;;;;;2.35;1.00;;;27.70;49.60;;;;;;9163938;19;20067;-68
2022/08/30 12:30:01;;;;;;;2.22;0.70;;;27.70;49.60;;;;;;9164103;19;20018;-68
2022/08/30 12:33:11;;;;;;;7.10;1.33;;;27.70;49.60;;;;;;9167396;19;20721;-68
2022/08/30 12:36:32;;;;;;;3.60;1.08;;;27.80;49.70;;;;;;9166477;19;20014;-67
2022/08/30 12:39:40;;;;;;;1.90;0.90;;;27.70;49.50;;;;;;9167892;19;20601;-67
2022/08/30 12:42:55;;;;;;;5.03;0.77;;;27.80;49.40;;;;;;9167679;19;20566;-67
2022/08/30 12:46:05;;;;;;;2.25;0.98;;;27.80;48.90;;;;;;9171697;19;20018;-68
2022/08/30 12:49:11;;;;;;;5.13;1.08;;;27.90;49.00;;;;;;9177501;19;20399;-69
2022/08/30 12:52:20;;;;;;;2.95;1.20;;;27.90;49.00;;;;;;9181437;19;20024;-68
2022/08/30 12:55:29;;;;;;;4.72;1.10;;;27.90;48.90;;;;;;9185087;19;20022;-67
2022/08/30 12:58:45;;;;;;;5.45;1.05;;;27.90;48.80;;;;;;9185573;19;20105;-68
2022/08/30 13:01:50;;;;;;;4.45;1.20;;;27.90;48.40;;;;;;9186924;19;20014;-68
2022/08/30 13:05:00;;;;;;;2.63;1.00;;;27.90;48.70;;;;;;9188243;19;20014;-69
2022/08/30 13:08:33;;;;;;;2.30;1.02;;;27.90;48.60;;;;;;9185988;19;20015;-68
2022/08/30 13:11:40;;;;;;;2.17;1.07;;;27.90;48.20;;;;;;9180319;19;20014;-68
2022/08/30 13:14:48;;;;;;;4.25;1.10;;;27.90;48.60;;;;;;9179751;19;20496;-67
2022/08/30 13:18:17;;;;;;;5.50;1.13;;;27.80;48.30;;;;;;9182022;19;20022;-67
2022/08/30 13:21:32;;;;;;;2.15;1.00;;;27.80;48.00;;;;;;9183299;19;20017;-68
2022/08/30 13:24:37;;;;;;;2.42;1.00;;;27.80;48.30;;;;;;9182844;19;20018;-68
2022/08/30 13:27:42;;;;;;;2.25;0.80;;;27.80;48.30;;;;;;9183282;19;20487;-68
2022/08/30 13:30:50;;;;;;;3.83;1.00;;;27.80;48.20;;;;;;9179938;19;20014;-68
2022/08/30 13:33:59;;;;;;;2.63;0.90;;;27.70;48.00;;;;;;9181820;19;20018;-68
2022/08/30 13:37:06;;;;;;;2.65;1.00;;;27.70;48.00;;;;;;9179019;19;20035;-68
2022/08/30 13:40:31;;;;;;;2.17;0.93;;;27.70;48.60;;;;;;9174362;19;20491;-69
2022/08/30 13:43:37;;;;;;;3.45;1.20;;;27.70;47.90;;;;;;9169785;19;20027;-69
2022/08/30 13:47:05;;;;;;;2.85;1.10;;;27.70;47.80;;;;;;9162293;19;20039;-70
2022/08/30 13:50:30;;;;;;;5.10;0.90;;;27.60;47.70;;;;;;9175230;19;20049;-70
2022/08/30 13:53:36;;;;;;;1.23;0.80;;;27.60;47.70;;;;;;9179943;19;20412;-69
2022/08/30 13:56:58;;;;;;;3.70;1.10;;;27.60;47.70;;;;;;9179588;19;21303;-69
2022/08/30 14:00:08;;;;;;;5.43;0.90;;;27.50;47.50;;;;;;9182812;19;20467;-69
2022/08/30 14:03:21;;;;;;;4.47;1.00;;;27.50;47.50;;;;;;9175476;19;20019;-67
2022/08/30 14:06:26;;;;;;;1.02;0.77;;;27.40;47.30;;;;;;9168669;19;20029;-67
2022/08/30 14:09:38;;;;;;;3.58;1.10;;;27.40;47.40;;;;;;9173988;19;20014;-68
2022/08/30 14:12:43;;;;;;;6.28;0.85;;;27.40;47.40;;;;;;9176140;19;20015;-70
2022/08/30 14:16:09;;;;;;;2.85;0.98;;;27.30;47.20;;;;;;9175214;19;20002;-67
2022/08/30 14:19:37;;;;;;;3.10;1.30;;;27.30;47.30;;;;;;9174503;19;20024;-69
2022/08/30 14:22:42;;;;;;;1.17;0.95;;;27.20;47.10;;;;;;9179796;19;20018;-72
2022/08/30 14:25:47;;;;;;;4.78;1.13;;;27.10;47.10;;;;;;9184872;19;20052;-69
2022/08/30 14:28:54;;;;;;;8.30;1.02;;;27.10;47.20;;;;;;9175497;19;20011;-71
2022/08/30 14:31:59;;;;;;;2.00;0.80;;;27.00;47.00;;;;;;9176296;19;20038;-69
2022/08/30 14:35:08;;;;;;;2.25;1.00;;;27.00;46.90;;;;;;9177058;19;20502;-69
2022/08/30 14:38:14;;;;;;;1.40;0.82;;;27.00;46.90;;;;;;9180055;19;20015;-69
2022/08/30 14:41:19;;;;;;;2.38;1.02;;;27.00;47.00;;;;;;9167101;19;20594;-67
2022/08/30 14:44:26;;;;;;;1.08;0.85;;;27.00;46.90;;;;;;9171075;19;20511;-67
2022/08/30 14:47:31;;;;;;;2.50;0.90;;;27.00;46.80;;;;;;9175963;19;20356;-66
2022/08/30 14:50:39;;;;;;;7.85;1.52;;;26.90;46.80;;;;;;9175114;19;20022;-68
2022/08/30 14:53:44;;;;;;;0.82;0.80;;;26.90;46.70;;;;;;9175359;19;20386;-68
2022/08/30 14:56:50;;;;;;;1.88;0.77;;;26.80;46.70;;;;;;9176574;19;20506;-67
2022/08/30 14:59:55;;;;;;;3.05;1.20;;;26.80;46.70;;;;;;9176307;19;20504;-67
2022/08/30 15:03:00;;;;;;;5.80;1.23;;;26.80;46.70;;;;;;9174234;19;20052;-66
2022/08/30 15:06:09;;;;;;;3.30;0.88;;;26.70;46.70;;;;;;9174673;19;20018;-67
2022/08/30 15:09:17;;;;;;;1.23;1.00;;;26.70;46.70;;;;;;9175435;19;20026;-68
2022/08/30 15:12:27;;;;;;;1.25;0.90;;;26.70;46.70;;;;;;9174873;19;20042;-67
2022/08/30 15:15:32;;;;;;;2.40;0.90;;;26.70;46.70;;;;;;9173047;19;20026;-67
2022/08/30 15:18:38;;;;;;;1.90;1.00;;;26.60;46.60;;;;;;9174865;19;20396;-67
2022/08/30 15:21:49;;;;;;;1.90;0.80;;;26.60;46.70;;;;;;9176310;19;21031;-67
2022/08/30 15:24:54;;;;;;;4.93;0.90;;;26.60;46.60;;;;;;9175916;19;20025;-67
2022/08/30 15:27:59;;;;;;;3.97;1.10;;;26.50;46.60;;;;;;9168392;19;20018;-66
2022/08/30 15:31:04;;;;;;;3.25;0.98;;;26.50;46.70;;;;;;9168835;19;20022;-67
2022/08/30 15:34:15;;;;;;;2.95;0.98;;;26.50;46.70;;;;;;9172199;19;20029;-68
2022/08/30 15:37:23;;;;;;;2.58;1.30;;;26.40;46.60;;;;;;9171918;19;20399;-68
2022/08/30 15:40:28;;;;;;;1.85;1.02;;;26.40;46.70;;;;;;9164673;19;20022;-67
2022/08/30 15:43:34;;;;;;;3.70;1.13;;;26.30;46.70;;;;;;9167722;19;20022;-67
2022/08/30 15:46:40;;;;;;;9.48;2.85;;;26.20;46.70;;;;;;9172149;19;20022;-68
2022/08/30 15:49:45;;;;;;;2.38;1.40;;;26.20;46.70;;;;;;9175980;19;20094;-67
2022/08/30 15:52:53;;;;;;;2.08;1.20;;;26.10;46.70;;;;;;9178543;19;20014;-67
2022/08/30 15:55:58;;;;;;;1.85;1.33;;;26.00;46.60;;;;;;9174976;19;20018;-67
2022/08/30 15:59:03;;;;;;;1.17;1.08;;;26.00;46.80;;;;;;9178915;19;20022;-66
2022/08/30 16:02:10;;;;;;;2.47;1.20;;;25.90;46.80;;;;;;9175914;19;20066;-70
2022/08/30 16:05:16;;;;;;;1.55;0.68;;;25.80;46.80;;;;;;9173403;19;20051;-71
2022/08/30 16:08:24;;;;;;;1.73;1.10;;;25.70;46.80;;;;;;9165428;19;20765;-69
2022/08/30 16:11:29;;;;;;;6.43;1.00;;;25.70;46.80;;;;;;9164136;19;20019;-67
2022/08/30 16:14:35;;;;;;;1.05;0.90;;;25.60;46.90;;;;;;9167359;19;20022;-68
2022/08/30 16:17:41;;;;;;;1.85;1.15;;;25.50;46.80;;;;;;9173895;19;20015;-68
2022/08/30 16:20:46;;;;;;;3.05;1.00;;;25.40;46.90;;;;;;9173454;19;20018;-68
2022/08/30 16:23:56;;;;;;;1.70;1.08;;;25.40;46.80;;;;;;9173339;19;20025;-68
2022/08/30 16:27:01;;;;;;;2.13;1.30;;;25.30;46.70;;;;;;9166013;19;20025;-68
2022/08/30 16:30:07;;;;;;;4.32;1.42;;;25.30;46.80;;;;;;9180233;19;20006;-69
2022/08/30 16:33:15;;;;;;;4.43;0.80;;;25.20;46.80;;;;;;9185395;19;20094;-69